createdAt,value
2022-12-22T00:00:40.617Z,8.98
2022-12-22T00:01:43.594Z,8.83
2022-12-22T00:02:41.785Z,8.93
2022-12-22T00:03:40.595Z,8.97
2022-12-22T00:04:40.444Z,8.93
2022-12-22T00:05:40.472Z,8.98
2022-12-22T00:06:40.457Z,8.82
2022-12-22T00:07:40.446Z,8.96
2022-12-22T00:08:40.473Z,8.85
2022-12-22T00:09:40.392Z,8.89
2022-12-22T00:10:40.572Z,8.82
2022-12-22T00:11:40.354Z,8.83
2022-12-22T00:12:40.404Z,8.86
2022-12-22T00:13:41.286Z,8.89
2022-12-22T00:14:40.358Z,8.85
2022-12-22T00:15:40.326Z,8.85
2022-12-22T00:16:40.405Z,8.86
2022-12-22T00:17:40.309Z,8.82
2022-12-22T00:18:41.296Z,8.79
2022-12-22T00:19:40.342Z,8.85
2022-12-22T00:20:40.291Z,8.83
2022-12-22T00:21:40.358Z,8.88
2022-12-22T00:22:40.255Z,8.78
2022-12-22T00:23:40.248Z,8.86
2022-12-22T00:24:40.371Z,8.86
2022-12-22T00:25:40.252Z,8.82
2022-12-22T00:26:40.405Z,8.79
2022-12-22T00:27:45.340Z,8.88
2022-12-22T00:28:41.220Z,8.82
2022-12-22T00:29:40.824Z,8.76
2022-12-22T00:30:40.263Z,8.78
2022-12-22T00:31:40.166Z,8.82
2022-12-22T00:32:40.226Z,8.85
2022-12-22T00:33:40.132Z,8.86
2022-12-22T00:34:40.254Z,8.82
2022-12-22T00:35:40.107Z,8.85
2022-12-22T00:36:40.302Z,8.82
2022-12-22T00:37:40.081Z,8.82
2022-12-22T00:38:40.088Z,8.80
2022-12-22T00:39:40.062Z,8.82
2022-12-22T00:40:40.104Z,8.79
2022-12-22T00:41:40.038Z,8.83
2022-12-22T00:42:40.145Z,8.88
2022-12-22T00:43:40.019Z,8.86
2022-12-22T00:44:40.016Z,8.85
2022-12-22T00:45:40.029Z,8.80
2022-12-22T00:46:40.116Z,8.91
2022-12-22T00:47:39.976Z,8.76
2022-12-22T00:48:40.181Z,8.82
2022-12-22T00:49:39.954Z,8.86
2022-12-22T00:50:40.135Z,8.93
2022-12-22T00:51:39.930Z,8.89
2022-12-22T00:52:39.931Z,8.91
2022-12-22T00:53:39.963Z,8.94
2022-12-22T00:54:39.938Z,8.93
2022-12-22T00:55:42.832Z,8.97
2022-12-22T00:56:39.883Z,8.97
2022-12-22T00:57:39.864Z,8.93
2022-12-22T00:58:39.890Z,8.97
2022-12-22T00:59:39.995Z,8.96
2022-12-22T01:00:39.854Z,8.93
2022-12-22T01:01:40.141Z,8.97
2022-12-22T01:02:40.092Z,8.88
2022-12-22T01:03:40.954Z,8.91
2022-12-22T01:04:39.839Z,8.85
2022-12-22T01:05:39.773Z,8.85
2022-12-22T01:06:39.893Z,8.91
2022-12-22T01:07:39.762Z,8.97
2022-12-22T01:08:39.876Z,8.97
2022-12-22T01:09:39.738Z,9.00
2022-12-22T01:10:39.917Z,8.96
2022-12-22T01:11:39.861Z,8.89
2022-12-22T01:12:39.878Z,8.93
2022-12-22T01:13:40.294Z,8.91
2022-12-22T01:14:39.917Z,8.94
2022-12-22T01:15:39.723Z,8.91
2022-12-22T01:16:39.693Z,8.89
2022-12-22T01:17:39.753Z,8.86
2022-12-22T01:18:39.639Z,8.85
2022-12-22T01:19:39.720Z,8.85
2022-12-22T01:20:39.637Z,8.79
2022-12-22T01:21:39.632Z,8.80
2022-12-22T01:22:39.602Z,8.80
2022-12-22T01:23:40.359Z,8.78
2022-12-22T01:24:39.612Z,8.83
2022-12-22T01:25:40.811Z,8.83
2022-12-22T01:26:39.570Z,8.89
2022-12-22T01:27:39.572Z,8.79
2022-12-22T01:28:40.285Z,8.83
2022-12-22T01:29:39.532Z,8.85
2022-12-22T01:30:39.624Z,8.82
2022-12-22T01:31:39.510Z,8.86
2022-12-22T01:32:39.512Z,8.83
2022-12-22T01:33:42.292Z,8.85
2022-12-22T01:34:39.474Z,8.83
2022-12-22T01:35:39.463Z,8.79
2022-12-22T01:36:39.446Z,8.78
2022-12-22T01:37:39.441Z,8.70
2022-12-22T01:38:39.437Z,8.73
2022-12-22T01:39:39.453Z,8.78
2022-12-22T01:40:39.403Z,8.73
2022-12-22T01:41:39.451Z,8.82
2022-12-22T01:42:39.401Z,8.65
2022-12-22T01:43:39.465Z,8.65
2022-12-22T01:44:39.398Z,8.70
2022-12-22T01:45:39.540Z,8.68
2022-12-22T01:46:39.576Z,8.65
2022-12-22T01:47:39.487Z,8.70
2022-12-22T01:48:39.321Z,8.60
2022-12-22T01:49:39.508Z,8.71
2022-12-22T01:50:39.293Z,8.67
2022-12-22T01:51:39.366Z,8.65
2022-12-22T01:52:39.270Z,8.63
2022-12-22T01:53:39.334Z,8.68
2022-12-22T01:54:39.276Z,8.63
2022-12-22T01:55:39.394Z,8.58
2022-12-22T01:56:39.221Z,8.45
2022-12-22T01:57:39.219Z,8.58
2022-12-22T01:58:39.213Z,8.60
2022-12-22T01:59:39.525Z,8.55
2022-12-22T02:00:39.221Z,8.57
2022-12-22T02:01:39.338Z,8.45
2022-12-22T02:02:39.272Z,8.43
2022-12-22T02:03:39.294Z,8.54
2022-12-22T02:04:39.165Z,8.47
2022-12-22T02:05:39.203Z,8.47
2022-12-22T02:06:39.149Z,8.57
2022-12-22T02:07:39.276Z,8.52
2022-12-22T02:08:39.102Z,8.58
2022-12-22T02:09:40.264Z,8.58
2022-12-22T02:10:39.103Z,8.52
2022-12-22T02:11:39.251Z,8.54
2022-12-22T02:12:39.071Z,8.49
2022-12-22T02:13:39.106Z,8.46
2022-12-22T02:14:39.038Z,8.46
2022-12-22T02:15:39.173Z,8.52
2022-12-22T02:16:39.013Z,8.42
2022-12-22T02:17:39.014Z,8.47
2022-12-22T02:18:39.007Z,8.46
2022-12-22T02:19:39.093Z,8.40
2022-12-22T02:20:38.980Z,8.40
2022-12-22T02:21:43.004Z,8.47
2022-12-22T02:22:38.943Z,8.34
2022-12-22T02:23:38.972Z,8.36
2022-12-22T02:24:38.927Z,8.32
2022-12-22T02:25:39.976Z,8.32
2022-12-22T02:26:39.789Z,8.17
2022-12-22T02:27:38.953Z,8.17
2022-12-22T02:28:38.876Z,8.25
2022-12-22T02:29:39.933Z,8.10
2022-12-22T02:30:39.998Z,8.27
2022-12-22T02:31:38.952Z,8.24
2022-12-22T02:32:38.984Z,8.17
2022-12-22T02:33:38.817Z,8.25
2022-12-22T02:34:39.035Z,8.27
2022-12-22T02:35:38.814Z,8.29
2022-12-22T02:36:39.007Z,8.24
2022-12-22T02:37:38.859Z,8.27
2022-12-22T02:38:41.286Z,8.28
2022-12-22T02:39:40.465Z,8.27
2022-12-22T02:40:41.488Z,8.42
2022-12-22T02:41:38.736Z,8.37
2022-12-22T02:42:38.838Z,8.36
2022-12-22T02:43:39.292Z,8.42
2022-12-22T02:44:38.857Z,8.36
2022-12-22T02:45:38.707Z,8.39
2022-12-22T02:46:38.901Z,8.42
2022-12-22T02:47:38.667Z,8.45
2022-12-22T02:48:38.699Z,8.49
2022-12-22T02:49:41.360Z,8.50
2022-12-22T02:50:38.636Z,8.52
2022-12-22T02:51:38.641Z,8.58
2022-12-22T02:52:39.987Z,8.55
2022-12-22T02:53:38.630Z,8.60
2022-12-22T02:54:38.719Z,8.63
2022-12-22T02:55:38.596Z,8.60
2022-12-22T02:56:38.733Z,8.68
2022-12-22T02:57:39.291Z,8.71
2022-12-22T02:58:39.354Z,8.71
2022-12-22T02:59:38.588Z,8.63
2022-12-22T03:00:38.553Z,8.68
2022-12-22T03:01:38.773Z,8.75
2022-12-22T03:02:38.783Z,8.78
2022-12-22T03:03:38.790Z,8.83
2022-12-22T03:04:38.646Z,8.70
2022-12-22T03:05:38.493Z,8.78
2022-12-22T03:06:38.869Z,8.80
2022-12-22T03:07:38.470Z,8.76
2022-12-22T03:08:38.615Z,8.82
2022-12-22T03:09:39.313Z,8.83
2022-12-22T03:10:38.436Z,8.85
2022-12-22T03:11:38.429Z,8.82
2022-12-22T03:12:38.439Z,8.78
2022-12-22T03:13:38.381Z,8.76
2022-12-22T03:14:38.442Z,8.79
2022-12-22T03:15:38.355Z,8.83
2022-12-22T03:16:38.638Z,8.82
2022-12-22T03:17:38.362Z,8.80
2022-12-22T03:18:38.335Z,8.79
2022-12-22T03:19:38.315Z,8.83
2022-12-22T03:20:59.398Z,8.76
2022-12-22T03:21:38.303Z,8.76
2022-12-22T03:22:39.537Z,8.79
2022-12-22T03:23:38.293Z,8.79
2022-12-22T03:24:39.555Z,8.75
2022-12-22T03:25:38.301Z,8.86
2022-12-22T03:26:38.248Z,8.82
2022-12-22T03:27:38.233Z,8.79
2022-12-22T03:28:38.390Z,8.82
2022-12-22T03:29:38.217Z,8.85
2022-12-22T03:30:38.205Z,8.76
2022-12-22T03:31:38.225Z,8.85
2022-12-22T03:32:38.433Z,8.85
2022-12-22T03:33:38.172Z,8.79
2022-12-22T03:34:38.363Z,8.82
2022-12-22T03:35:38.211Z,8.85
2022-12-22T03:36:38.151Z,8.85
2022-12-22T03:37:38.152Z,8.80
2022-12-22T03:38:38.209Z,8.89
2022-12-22T03:39:38.108Z,8.89
2022-12-22T03:40:38.222Z,8.97
2022-12-22T03:41:38.091Z,8.94
2022-12-22T03:42:38.221Z,8.88
2022-12-22T03:43:38.081Z,8.94
2022-12-22T03:44:38.236Z,8.97
2022-12-22T03:45:38.035Z,9.03
2022-12-22T03:46:39.184Z,9.00
2022-12-22T03:47:38.097Z,8.98
2022-12-22T03:48:38.056Z,8.97
2022-12-22T03:49:38.792Z,9.04
2022-12-22T03:50:40.938Z,8.93
2022-12-22T03:51:37.973Z,8.91
2022-12-22T03:52:38.024Z,8.98
2022-12-22T03:53:37.972Z,9.04
2022-12-22T03:54:38.111Z,9.08
2022-12-22T03:55:37.959Z,9.15
2022-12-22T03:56:39.135Z,9.10
2022-12-22T03:57:37.931Z,9.06
2022-12-22T03:58:37.919Z,9.08
2022-12-22T03:59:37.919Z,9.06
2022-12-22T04:00:41.096Z,9.08
2022-12-22T04:01:39.053Z,9.12
2022-12-22T04:02:38.057Z,9.12
2022-12-22T04:03:38.856Z,9.12
2022-12-22T04:04:38.991Z,9.22
2022-12-22T04:05:40.810Z,9.17
2022-12-22T04:06:37.979Z,9.13
2022-12-22T04:07:37.805Z,9.15
2022-12-22T04:08:38.010Z,9.13
2022-12-22T04:09:37.828Z,9.13
2022-12-22T04:10:37.799Z,9.13
2022-12-22T04:11:37.771Z,9.10
2022-12-22T04:12:37.809Z,9.10
2022-12-22T04:13:37.742Z,9.10
2022-12-22T04:14:37.898Z,9.13
2022-12-22T04:15:37.711Z,9.10
2022-12-22T04:16:37.818Z,9.17
2022-12-22T04:17:37.716Z,9.08
2022-12-22T04:18:37.859Z,9.16
2022-12-22T04:19:37.708Z,9.15
2022-12-22T04:20:39.508Z,9.10
2022-12-22T04:21:37.672Z,9.10
2022-12-22T04:22:37.641Z,9.10
2022-12-22T04:23:38.496Z,9.04
2022-12-22T04:24:37.633Z,9.12
2022-12-22T04:25:37.626Z,9.08
2022-12-22T04:26:37.628Z,9.06
2022-12-22T04:27:37.709Z,9.06
2022-12-22T04:28:37.633Z,9.15
2022-12-22T04:29:58.622Z,9.06
2022-12-22T04:30:38.293Z,9.08
2022-12-22T04:31:37.645Z,9.15
2022-12-22T04:32:37.505Z,9.06
2022-12-22T04:33:38.571Z,9.10
2022-12-22T04:34:37.523Z,9.04
2022-12-22T04:35:37.497Z,9.10
2022-12-22T04:36:37.510Z,9.10
2022-12-22T04:37:37.478Z,9.04
2022-12-22T04:38:37.467Z,9.06
2022-12-22T04:39:37.631Z,9.12
2022-12-22T04:40:38.336Z,9.08
2022-12-22T04:41:37.652Z,9.12
2022-12-22T04:42:37.412Z,9.10
2022-12-22T04:43:37.613Z,9.13
2022-12-22T04:44:37.390Z,9.06
2022-12-22T04:45:38.543Z,9.15
2022-12-22T04:46:37.375Z,9.13
2022-12-22T04:47:37.444Z,9.13
2022-12-22T04:48:37.367Z,9.12
2022-12-22T04:49:38.292Z,9.04
2022-12-22T04:50:40.318Z,9.12
2022-12-22T04:51:37.823Z,9.10
2022-12-22T04:52:37.514Z,9.16
2022-12-22T04:53:37.313Z,9.10
2022-12-22T04:54:37.477Z,9.13
2022-12-22T04:55:37.305Z,9.13
2022-12-22T04:56:37.321Z,9.15
2022-12-22T04:57:40.830Z,9.13
2022-12-22T04:58:37.927Z,9.16
2022-12-22T04:59:43.794Z,9.12
2022-12-22T05:00:37.309Z,9.12
2022-12-22T05:01:37.350Z,9.08
2022-12-22T05:02:38.102Z,9.12
2022-12-22T05:03:37.864Z,9.10
2022-12-22T05:04:43.895Z,9.08
2022-12-22T05:05:37.322Z,9.06
2022-12-22T05:06:37.347Z,9.13
2022-12-22T05:07:37.145Z,9.12
2022-12-22T05:08:37.144Z,9.15
2022-12-22T05:09:37.149Z,9.17
2022-12-22T05:10:37.180Z,9.10
2022-12-22T05:11:37.323Z,9.08
2022-12-22T05:12:37.219Z,9.10
2022-12-22T05:13:37.083Z,9.06
2022-12-22T05:14:37.074Z,9.13
2022-12-22T05:15:37.822Z,9.06
2022-12-22T05:16:39.962Z,9.10
2022-12-22T05:17:37.058Z,9.12
2022-12-22T05:18:37.032Z,9.06
2022-12-22T05:19:37.103Z,9.06
2022-12-22T05:20:36.999Z,9.15
2022-12-22T05:21:37.103Z,9.04
2022-12-22T05:22:39.826Z,9.04
2022-12-22T05:23:37.113Z,9.06
2022-12-22T05:24:36.970Z,9.10
2022-12-22T05:25:36.969Z,9.06
2022-12-22T05:26:36.934Z,9.01
2022-12-22T05:27:37.083Z,9.08
2022-12-22T05:28:37.122Z,9.08
2022-12-22T05:29:36.925Z,9.08
2022-12-22T05:30:37.068Z,9.08
2022-12-22T05:31:39.505Z,9.06
2022-12-22T05:32:37.891Z,9.06
2022-12-22T05:33:36.867Z,9.15
2022-12-22T05:34:36.845Z,9.06
2022-12-22T05:35:36.840Z,9.03
2022-12-22T05:36:36.830Z,9.08
2022-12-22T05:37:36.813Z,9.12
2022-12-22T05:38:36.836Z,9.12
2022-12-22T05:39:36.816Z,9.06
2022-12-22T05:40:36.966Z,9.10
2022-12-22T05:41:36.781Z,9.10
2022-12-22T05:42:36.873Z,9.01
2022-12-22T05:43:36.765Z,9.06
2022-12-22T05:44:36.809Z,9.06
2022-12-22T05:45:36.751Z,9.04
2022-12-22T05:46:36.885Z,9.10
2022-12-22T05:47:36.758Z,9.06
2022-12-22T05:48:39.214Z,9.10
2022-12-22T05:49:36.828Z,9.13
2022-12-22T05:50:36.678Z,9.08
2022-12-22T05:51:36.895Z,9.13
2022-12-22T05:52:36.661Z,9.10
2022-12-22T05:53:36.668Z,9.06
2022-12-22T05:54:36.630Z,9.06
2022-12-22T05:55:36.644Z,9.08
2022-12-22T05:56:36.624Z,9.06
2022-12-22T05:57:36.747Z,9.10
2022-12-22T05:58:36.572Z,9.08
2022-12-22T05:59:36.685Z,9.08
2022-12-22T06:00:36.647Z,9.12
2022-12-22T06:01:36.744Z,9.08
2022-12-22T06:02:36.633Z,9.06
2022-12-22T06:03:36.961Z,9.08
2022-12-22T06:04:36.523Z,9.06
2022-12-22T06:05:36.726Z,9.06
2022-12-22T06:06:36.498Z,9.13
2022-12-22T06:07:36.518Z,9.10
2022-12-22T06:08:36.496Z,9.08
2022-12-22T06:09:36.468Z,9.08
2022-12-22T06:10:36.475Z,9.01
2022-12-22T06:11:36.563Z,9.01
2022-12-22T06:12:36.437Z,9.03
2022-12-22T06:13:36.429Z,9.03
2022-12-22T06:14:36.437Z,8.96
2022-12-22T06:15:36.685Z,9.01
2022-12-22T06:16:36.541Z,9.03
2022-12-22T06:17:43.763Z,9.01
2022-12-22T06:18:38.467Z,9.01
2022-12-22T06:19:36.354Z,9.00
2022-12-22T06:20:36.352Z,8.96
2022-12-22T06:21:36.379Z,9.00
2022-12-22T06:22:36.332Z,8.98
2022-12-22T06:23:36.318Z,8.97
2022-12-22T06:24:36.443Z,8.98
2022-12-22T06:25:36.343Z,8.94
2022-12-22T06:26:36.290Z,9.03
2022-12-22T06:27:36.274Z,8.91
2022-12-22T06:28:36.481Z,9.01
2022-12-22T06:29:36.264Z,8.94
2022-12-22T06:30:36.237Z,8.96
2022-12-22T06:31:36.424Z,8.94
2022-12-22T06:32:36.243Z,8.96
2022-12-22T06:33:36.311Z,9.03
2022-12-22T06:34:36.196Z,8.97
2022-12-22T06:35:36.317Z,8.96
2022-12-22T06:36:36.381Z,8.97
2022-12-22T06:37:36.167Z,9.01
2022-12-22T06:38:36.153Z,8.96
2022-12-22T06:39:36.146Z,9.00
2022-12-22T06:40:36.145Z,8.94
2022-12-22T06:41:36.138Z,8.97
2022-12-22T06:42:36.165Z,8.96
2022-12-22T06:43:36.095Z,8.96
2022-12-22T06:44:36.195Z,8.86
2022-12-22T06:45:36.075Z,8.96
2022-12-22T06:46:36.300Z,8.97
2022-12-22T06:47:36.066Z,8.96
2022-12-22T06:48:36.229Z,8.97
2022-12-22T06:49:36.048Z,8.97
2022-12-22T06:50:36.050Z,9.01
2022-12-22T06:51:36.214Z,8.96
2022-12-22T06:52:36.024Z,9.00
2022-12-22T06:53:36.033Z,8.94
2022-12-22T06:54:36.007Z,8.97
2022-12-22T06:55:36.046Z,8.96
2022-12-22T06:56:35.955Z,8.98
2022-12-22T06:57:36.069Z,8.93
2022-12-22T06:58:35.940Z,8.98
2022-12-22T06:59:36.088Z,8.96
2022-12-22T07:00:35.924Z,8.98
2022-12-22T07:01:36.187Z,8.94
2022-12-22T07:02:36.466Z,8.96
2022-12-22T07:03:35.890Z,8.96
2022-12-22T07:04:35.895Z,8.94
2022-12-22T07:05:35.855Z,8.94
2022-12-22T07:06:35.965Z,8.93
2022-12-22T07:07:35.860Z,8.89
2022-12-22T07:08:35.976Z,8.96
2022-12-22T07:09:35.931Z,8.88
2022-12-22T07:10:35.804Z,8.89
2022-12-22T07:11:36.970Z,8.91
2022-12-22T07:12:35.793Z,8.91
2022-12-22T07:13:36.025Z,8.89
2022-12-22T07:14:35.763Z,8.86
2022-12-22T07:15:35.852Z,8.82
2022-12-22T07:16:35.824Z,8.83
2022-12-22T07:17:35.733Z,8.86
2022-12-22T07:18:35.739Z,8.88
2022-12-22T07:19:35.809Z,8.86
2022-12-22T07:20:35.711Z,8.89
2022-12-22T07:21:35.712Z,8.94
2022-12-22T07:22:35.821Z,8.82
2022-12-22T07:23:36.343Z,8.91
2022-12-22T07:24:36.855Z,8.94
2022-12-22T07:25:35.639Z,8.83
2022-12-22T07:26:35.666Z,8.88
2022-12-22T07:27:35.633Z,8.96
2022-12-22T07:28:35.660Z,8.96
2022-12-22T07:29:35.623Z,8.96
2022-12-22T07:30:35.577Z,8.97
2022-12-22T07:31:35.728Z,8.86
2022-12-22T07:32:35.583Z,8.91
2022-12-22T07:33:35.685Z,8.93
2022-12-22T07:34:35.560Z,8.93
2022-12-22T07:35:35.599Z,9.00
2022-12-22T07:36:35.590Z,8.94
2022-12-22T07:37:36.302Z,8.91
2022-12-22T07:38:38.378Z,9.00
2022-12-22T07:39:35.492Z,8.94
2022-12-22T07:40:41.200Z,8.97
2022-12-22T07:41:36.503Z,9.00
2022-12-22T07:42:35.562Z,8.97
2022-12-22T07:43:36.302Z,8.91
2022-12-22T07:44:35.455Z,8.91
2022-12-22T07:45:35.437Z,8.96
2022-12-22T07:46:35.445Z,8.93
2022-12-22T07:47:35.785Z,8.97
2022-12-22T07:48:35.581Z,8.97
2022-12-22T07:49:42.317Z,8.98
2022-12-22T07:50:35.386Z,9.04
2022-12-22T07:51:35.373Z,9.03
2022-12-22T07:52:35.377Z,9.00
2022-12-22T07:53:35.833Z,8.89
2022-12-22T07:54:41.419Z,9.06
2022-12-22T07:55:36.363Z,9.00
2022-12-22T07:56:35.316Z,9.03
2022-12-22T07:57:35.291Z,9.06
2022-12-22T07:58:35.303Z,9.10
2022-12-22T07:59:35.293Z,9.12
2022-12-22T08:00:35.459Z,9.12
2022-12-22T08:01:35.394Z,9.12
2022-12-22T08:02:38.881Z,9.17
2022-12-22T08:03:35.234Z,9.13
2022-12-22T08:04:35.338Z,9.13
2022-12-22T08:05:35.218Z,9.08
2022-12-22T08:06:35.303Z,9.12
2022-12-22T08:07:35.231Z,9.17
2022-12-22T08:08:35.378Z,9.16
2022-12-22T08:09:35.168Z,9.10
2022-12-22T08:10:35.152Z,9.10
2022-12-22T08:11:35.189Z,9.16
2022-12-22T08:12:36.165Z,9.13
2022-12-22T08:13:35.129Z,9.10
2022-12-22T08:14:35.144Z,9.10
2022-12-22T08:15:35.098Z,9.16
2022-12-22T08:16:35.137Z,9.10
2022-12-22T08:17:35.101Z,9.16
2022-12-22T08:18:38.036Z,9.12
2022-12-22T08:19:35.070Z,9.20
2022-12-22T08:20:35.455Z,9.16
2022-12-22T08:21:35.035Z,9.20
2022-12-22T08:22:37.863Z,9.23
2022-12-22T08:23:35.210Z,9.16
2022-12-22T08:24:35.028Z,9.17
2022-12-22T08:25:35.011Z,9.23
2022-12-22T08:26:35.038Z,9.17
2022-12-22T08:27:35.849Z,9.19
2022-12-22T08:28:34.956Z,9.17
2022-12-22T08:29:37.820Z,9.12
2022-12-22T08:30:34.929Z,9.16
2022-12-22T08:31:35.139Z,9.20
2022-12-22T08:32:34.926Z,9.23
2022-12-22T08:33:34.914Z,9.17
2022-12-22T08:34:34.895Z,9.17
2022-12-22T08:35:34.935Z,9.13
2022-12-22T08:36:34.864Z,9.15
2022-12-22T08:37:34.889Z,9.13
2022-12-22T08:38:34.842Z,9.23
2022-12-22T08:39:37.993Z,9.23
2022-12-22T08:40:34.826Z,9.24
2022-12-22T08:41:34.849Z,9.26
2022-12-22T08:42:34.802Z,9.24
2022-12-22T08:43:35.322Z,9.24
2022-12-22T08:44:34.781Z,9.26
2022-12-22T08:45:35.009Z,9.30
2022-12-22T08:46:34.823Z,9.31
2022-12-22T08:47:35.017Z,9.27
2022-12-22T08:48:34.740Z,9.27
2022-12-22T08:49:37.301Z,9.30
2022-12-22T08:50:34.719Z,9.20
2022-12-22T08:51:35.037Z,9.23
2022-12-22T08:52:35.313Z,9.24
2022-12-22T08:54:03.889Z,9.24
2022-12-22T08:54:35.701Z,9.22
2022-12-22T08:55:34.698Z,9.27
2022-12-22T08:56:34.646Z,9.30
2022-12-22T08:57:34.654Z,9.26
2022-12-22T08:58:34.852Z,9.22
2022-12-22T08:59:34.639Z,9.31
2022-12-22T09:00:34.655Z,9.27
2022-12-22T09:01:34.703Z,9.23
2022-12-22T09:02:34.795Z,9.27
2022-12-22T09:03:34.699Z,9.35
2022-12-22T09:04:34.573Z,9.26
2022-12-22T09:05:34.567Z,9.35
2022-12-22T09:06:40.427Z,9.34
2022-12-22T09:07:35.587Z,9.31
2022-12-22T09:08:34.686Z,9.37
2022-12-22T09:09:34.613Z,9.31
2022-12-22T09:10:34.531Z,9.30
2022-12-22T09:11:34.553Z,9.32
2022-12-22T09:12:34.571Z,9.31
2022-12-22T09:13:34.515Z,9.32
2022-12-22T09:14:34.559Z,9.38
2022-12-22T09:15:34.453Z,9.38
2022-12-22T09:16:34.915Z,9.35
2022-12-22T09:17:34.565Z,9.37
2022-12-22T09:18:34.420Z,9.38
2022-12-22T09:19:34.615Z,9.48
2022-12-22T09:20:34.400Z,9.34
2022-12-22T09:21:37.895Z,9.38
2022-12-22T09:22:34.367Z,9.42
2022-12-22T09:23:34.371Z,9.38
2022-12-22T09:24:34.374Z,9.40
2022-12-22T09:25:34.441Z,9.42
2022-12-22T09:26:34.324Z,9.41
2022-12-22T09:27:34.441Z,9.49
2022-12-22T09:28:34.311Z,9.38
2022-12-22T09:29:34.295Z,9.48
2022-12-22T09:30:34.290Z,9.49
2022-12-22T09:31:34.426Z,9.52
2022-12-22T09:32:34.283Z,9.50
2022-12-22T09:33:34.262Z,9.50
2022-12-22T09:34:34.274Z,9.55
2022-12-22T09:35:34.220Z,9.52
2022-12-22T09:36:34.244Z,9.58
2022-12-22T09:37:34.227Z,9.52
2022-12-22T09:38:34.199Z,9.52
2022-12-22T09:39:34.804Z,9.55
2022-12-22T09:40:34.296Z,9.48
2022-12-22T09:41:34.154Z,9.53
2022-12-22T09:42:34.831Z,9.48
2022-12-22T09:43:34.357Z,9.58
2022-12-22T09:44:40.814Z,9.56
2022-12-22T09:45:34.134Z,9.55
2022-12-22T09:46:34.125Z,9.55
2022-12-22T09:47:40.807Z,9.58
2022-12-22T09:48:34.243Z,9.53
2022-12-22T09:49:34.070Z,9.53
2022-12-22T09:50:34.159Z,9.53
2022-12-22T09:51:36.800Z,9.60
2022-12-22T09:52:34.043Z,9.53
2022-12-22T09:53:34.051Z,9.53
2022-12-22T09:54:34.174Z,9.52
2022-12-22T09:55:34.013Z,9.56
2022-12-22T09:56:33.992Z,9.55
2022-12-22T09:57:35.013Z,9.62
2022-12-22T09:58:34.056Z,9.52
2022-12-22T09:59:34.002Z,9.58
2022-12-22T10:00:34.022Z,9.58
2022-12-22T10:01:34.072Z,9.60
2022-12-22T10:02:33.975Z,9.67
2022-12-22T10:03:34.075Z,9.63
2022-12-22T10:04:34.346Z,9.62
2022-12-22T10:05:33.925Z,9.56
2022-12-22T10:06:33.891Z,9.62
2022-12-22T10:07:34.074Z,9.63
2022-12-22T10:08:33.860Z,9.55
2022-12-22T10:09:51.107Z,9.52
2022-12-22T10:10:35.341Z,9.58
2022-12-22T10:11:33.879Z,9.63
2022-12-22T10:12:33.827Z,9.52
2022-12-22T10:13:33.896Z,9.60
2022-12-22T10:14:33.808Z,9.58
2022-12-22T10:15:33.938Z,9.55
2022-12-22T10:16:33.884Z,9.53
2022-12-22T10:17:33.925Z,9.60
2022-12-22T10:18:33.756Z,9.53
2022-12-22T10:19:36.401Z,9.52
2022-12-22T10:20:33.733Z,9.68
2022-12-22T10:21:33.981Z,9.63
2022-12-22T10:22:33.844Z,9.63
2022-12-22T10:23:33.707Z,9.65
2022-12-22T10:24:33.693Z,9.63
2022-12-22T10:26:17.432Z,9.63
2022-12-22T10:26:34.666Z,9.67
2022-12-22T10:27:34.700Z,9.67
2022-12-22T10:28:33.792Z,9.63
2022-12-22T10:29:33.636Z,9.62
2022-12-22T10:30:33.813Z,9.67
2022-12-22T10:31:36.959Z,9.58
2022-12-22T10:32:33.673Z,9.59
2022-12-22T10:33:41.243Z,9.70
2022-12-22T10:34:37.322Z,9.68
2022-12-22T10:35:33.563Z,9.65
2022-12-22T10:36:33.645Z,9.75
2022-12-22T10:37:34.318Z,9.75
2022-12-22T10:38:33.585Z,9.71
2022-12-22T10:39:33.532Z,9.67
2022-12-22T10:40:33.673Z,9.60
2022-12-22T10:41:36.335Z,9.67
2022-12-22T10:42:33.685Z,9.71
2022-12-22T10:43:33.590Z,9.65
2022-12-22T10:44:33.497Z,9.74
2022-12-22T10:45:33.490Z,9.81
2022-12-22T10:46:33.603Z,9.75
2022-12-22T10:47:33.524Z,9.75
2022-12-22T10:48:33.429Z,9.71
2022-12-22T10:50:07.990Z,9.67
2022-12-22T10:51:07.493Z,9.75
2022-12-22T10:52:07.481Z,9.70
2022-12-22T10:53:07.470Z,9.74
2022-12-22T10:54:07.463Z,9.73
2022-12-22T10:55:07.535Z,9.71
2022-12-22T10:56:07.430Z,9.67
2022-12-22T10:57:07.429Z,9.65
2022-12-22T10:58:07.411Z,9.60
2022-12-22T10:59:07.407Z,9.67
2022-12-22T11:00:07.429Z,9.71
2022-12-22T11:01:07.470Z,9.70
2022-12-22T11:02:08.232Z,9.63
2022-12-22T11:03:07.513Z,9.62
2022-12-22T11:04:07.417Z,9.71
2022-12-22T11:05:07.424Z,9.70
2022-12-22T11:06:07.317Z,9.67
2022-12-22T11:07:07.428Z,9.73
2022-12-22T11:08:07.323Z,9.73
2022-12-22T11:09:32.517Z,9.74
2022-12-22T11:10:11.138Z,9.60
2022-12-22T11:11:07.302Z,9.74
2022-12-22T11:12:07.279Z,9.59
2022-12-22T11:13:07.303Z,9.71
2022-12-22T11:14:09.977Z,9.67
2022-12-22T11:15:07.223Z,9.70
2022-12-22T11:16:07.218Z,9.65
2022-12-22T11:17:07.261Z,9.68
2022-12-22T11:18:07.210Z,9.68
2022-12-22T11:19:07.202Z,9.73
2022-12-22T11:20:07.178Z,9.81
2022-12-22T11:21:07.159Z,9.85
2022-12-22T11:22:07.357Z,9.83
2022-12-22T11:23:07.153Z,9.86
2022-12-22T11:24:07.139Z,9.88
2022-12-22T11:25:07.145Z,9.99
2022-12-22T11:26:07.215Z,9.95
2022-12-22T11:27:07.977Z,10.06
2022-12-22T11:28:07.206Z,10.17
2022-12-22T11:29:07.087Z,10.18
2022-12-22T11:30:07.202Z,10.20
2022-12-22T11:31:07.114Z,10.24
2022-12-22T11:32:07.191Z,10.24
2022-12-22T11:33:07.024Z,10.24
2022-12-22T11:34:07.040Z,10.17
2022-12-22T11:35:07.037Z,10.20
2022-12-22T11:36:06.995Z,10.31
2022-12-22T11:37:06.990Z,10.35
2022-12-22T11:38:13.578Z,10.35
2022-12-22T11:39:06.999Z,10.26
2022-12-22T11:40:07.035Z,10.36
2022-12-22T11:41:06.961Z,10.44
2022-12-22T11:42:07.049Z,10.54
2022-12-22T11:43:06.938Z,10.51
2022-12-22T11:44:07.121Z,10.34
2022-12-22T11:45:06.901Z,10.31
2022-12-22T11:46:07.167Z,10.22
2022-12-22T11:47:06.878Z,10.16
2022-12-22T11:48:13.644Z,10.20
2022-12-22T11:49:06.858Z,10.25
2022-12-22T11:50:58.325Z,10.25
2022-12-22T11:51:10.365Z,10.31
2022-12-22T11:52:06.820Z,10.29
2022-12-22T11:53:07.478Z,10.26
2022-12-22T11:54:10.809Z,10.16
2022-12-22T11:55:06.796Z,10.22
2022-12-22T11:56:07.008Z,10.17
2022-12-22T11:57:07.485Z,10.26
2022-12-22T11:58:06.746Z,10.32
2022-12-22T11:59:07.495Z,10.31
2022-12-22T12:00:06.837Z,10.32
2022-12-22T12:01:17.585Z,10.28
2022-12-22T12:02:07.867Z,10.31
2022-12-22T12:03:06.823Z,10.43
2022-12-22T12:04:06.752Z,10.51
2022-12-22T12:05:07.483Z,10.58
2022-12-22T12:06:09.483Z,10.73
2022-12-22T12:07:06.754Z,10.70
2022-12-22T12:08:06.652Z,10.73
2022-12-22T12:09:07.494Z,10.73
2022-12-22T12:10:06.647Z,10.72
2022-12-22T12:11:09.511Z,10.81
2022-12-22T12:12:06.617Z,10.83
2022-12-22T12:13:06.622Z,10.65
2022-12-22T12:14:06.591Z,10.72
2022-12-22T12:15:07.479Z,10.86
2022-12-22T12:16:06.643Z,10.88
2022-12-22T12:17:06.677Z,10.91
2022-12-22T12:18:06.530Z,10.93
2022-12-22T12:19:06.582Z,10.95
2022-12-22T12:20:06.529Z,10.87
2022-12-22T12:21:06.511Z,10.86
2022-12-22T12:22:07.471Z,10.76
2022-12-22T12:23:07.556Z,10.72
2022-12-22T12:24:06.492Z,10.68
2022-12-22T12:25:06.513Z,10.58
2022-12-22T12:26:06.459Z,10.47
2022-12-22T12:27:13.001Z,10.57
2022-12-22T12:28:06.430Z,10.47
2022-12-22T12:29:06.437Z,10.49
2022-12-22T12:30:37.093Z,10.60
2022-12-22T12:31:07.545Z,10.58
2022-12-22T12:32:07.048Z,10.58
2022-12-22T12:33:06.434Z,10.60
2022-12-22T12:34:06.376Z,10.69
2022-12-22T12:35:06.373Z,10.70
2022-12-22T12:36:06.354Z,10.75
2022-12-22T12:37:07.018Z,10.75
2022-12-22T12:38:06.979Z,10.58
2022-12-22T12:39:08.339Z,10.57
2022-12-22T12:40:06.319Z,10.55
2022-12-22T12:41:21.169Z,10.52
2022-12-22T12:42:06.295Z,10.55
2022-12-22T12:43:09.613Z,10.51
2022-12-22T12:44:07.509Z,10.51
2022-12-22T12:45:06.277Z,10.57
2022-12-22T12:46:07.004Z,10.66
2022-12-22T12:47:06.407Z,10.66
2022-12-22T12:48:06.266Z,10.68
2022-12-22T12:49:06.224Z,10.65
2022-12-22T12:50:06.195Z,10.66
2022-12-22T12:51:06.198Z,10.57
2022-12-22T12:52:07.798Z,10.58
2022-12-22T12:53:09.176Z,10.44
2022-12-22T12:54:06.140Z,10.34
2022-12-22T12:55:06.328Z,10.36
2022-12-22T12:56:06.130Z,10.20
2022-12-22T12:57:07.381Z,10.18
2022-12-22T12:58:06.136Z,10.06
2022-12-22T12:59:06.099Z,10.01
2022-12-22T13:00:07.008Z,10.01
2022-12-22T13:01:06.128Z,9.93
2022-12-22T13:02:07.142Z,9.86
2022-12-22T13:03:09.273Z,9.89
2022-12-22T13:04:06.359Z,9.78
2022-12-22T13:05:06.052Z,9.68
2022-12-22T13:06:06.241Z,9.71
2022-12-22T13:07:06.055Z,9.77
2022-12-22T13:08:06.038Z,9.60
2022-12-22T13:09:39.882Z,9.63
2022-12-22T13:10:07.134Z,9.73
2022-12-22T13:11:05.988Z,9.86
2022-12-22T13:12:16.117Z,10.07
2022-12-22T13:13:06.932Z,9.91
2022-12-22T13:14:05.966Z,9.67
2022-12-22T13:15:06.663Z,9.73
2022-12-22T13:16:06.169Z,9.75